Terminal Aerodrome Forecast
Issued by NWS Spokane, WA

Home | Current Version | Previous Version | Text Only | Print | Product List | Glossary On
Versions: 1 2 3 4 5 6 7 8 9 10 11 12
000
FTUS46 KOTX 230528
TAFEAT
TAF
KEAT 230528Z 2306/2406 30010KT P6SM SKC
     FM231500 30008KT P6SM SCT150
     FM232000 24006KT P6SM OVC150
     FM240100 31011G20KT P6SM BKN150=

USA.gov is the U.S. government's official web portal to all federal, state and local government web resources and services.